sensor_id;sensor_type;location;lat;lon;timestamp;temperature;humidity
61004;DHT22;46889;37.310;13.582;2023-02-28T00:00:42;12.20;99.90
61004;DHT22;46889;37.310;13.582;2023-02-28T00:03:10;12.30;99.90
61004;DHT22;46889;37.310;13.582;2023-02-28T00:05:36;12.20;99.90
61004;DHT22;46889;37.310;13.582;2023-02-28T00:08:03;12.20;99.90
61004;DHT22;46889;37.310;13.582;2023-02-28T00:10:31;12.20;99.90
61004;DHT22;46889;37.310;13.582;2023-02-28T00:13:05;12.20;99.90
61004;DHT22;46889;37.310;13.582;2023-02-28T00:15:34;12.20;99.90
61004;DHT22;46889;37.310;13.582;2023-02-28T00:18:02;12.20;99.90
61004;DHT22;46889;37.310;13.582;2023-02-28T00:20:32;12.20;99.90
61004;DHT22;46889;37.310;13.582;2023-02-28T00:22:59;12.20;99.90
61004;DHT22;46889;37.310;13.582;2023-02-28T00:25:25;12.20;99.90
61004;DHT22;46889;37.310;13.582;2023-02-28T00:27:52;12.30;99.90
61004;DHT22;46889;37.310;13.582;2023-02-28T00:30:21;12.40;99.90
61004;DHT22;46889;37.310;13.582;2023-02-28T00:32:50;12.40;99.90
61004;DHT22;46889;37.310;13.582;2023-02-28T00:35:17;12.50;99.90
61004;DHT22;46889;37.310;13.582;2023-02-28T00:37:45;12.50;99.90
61004;DHT22;46889;37.310;13.582;2023-02-28T00:40:16;12.60;99.90
61004;DHT22;46889;37.310;13.582;2023-02-28T00:42:42;12.70;99.90
61004;DHT22;46889;37.310;13.582;2023-02-28T00:45:11;12.80;99.90
61004;DHT22;46889;37.310;13.582;2023-02-28T00:47:47;13.00;99.90
61004;DHT22;46889;37.310;13.582;2023-02-28T00:50:19;13.10;99.90
61004;DHT22;46889;37.310;13.582;2023-02-28T00:52:48;13.10;99.90
61004;DHT22;46889;37.310;13.582;2023-02-28T00:55:17;13.00;99.90
61004;DHT22;46889;37.310;13.582;2023-02-28T00:57:44;13.00;99.90
61004;DHT22;46889;37.310;13.582;2023-02-28T01:00:13;12.80;99.90
61004;DHT22;46889;37.310;13.582;2023-02-28T01:02:39;12.80;99.90
61004;DHT22;46889;37.310;13.582;2023-02-28T01:05:05;12.80;99.90
61004;DHT22;46889;37.310;13.582;2023-02-28T01:07:31;12.90;99.90
61004;DHT22;46889;37.310;13.582;2023-02-28T01:09:57;12.90;99.90
61004;DHT22;46889;37.310;13.582;2023-02-28T01:12:24;12.90;99.90
61004;DHT22;46889;37.310;13.582;2023-02-28T01:14:51;12.80;99.90
61004;DHT22;46889;37.310;13.582;2023-02-28T01:17:17;12.70;99.90
61004;DHT22;46889;37.310;13.582;2023-02-28T01:19:43;12.80;99.90
61004;DHT22;46889;37.310;13.582;2023-02-28T01:22:11;12.70;99.90
61004;DHT22;46889;37.310;13.582;2023-02-28T01:24:40;12.70;99.90
61004;DHT22;46889;37.310;13.582;2023-02-28T01:27:07;12.70;99.90
61004;DHT22;46889;37.310;13.582;2023-02-28T01:29:33;12.70;99.90
61004;DHT22;46889;37.310;13.582;2023-02-28T01:31:59;12.90;99.90
61004;DHT22;46889;37.310;13.582;2023-02-28T01:34:31;12.80;99.90
61004;DHT22;46889;37.310;13.582;2023-02-28T01:36:57;12.90;99.90
61004;DHT22;46889;37.310;13.582;2023-02-28T01:39:24;12.90;99.90
61004;DHT22;46889;37.310;13.582;2023-02-28T01:41:50;12.80;99.90
61004;DHT22;46889;37.310;13.582;2023-02-28T01:47:20;12.60;99.90
61004;DHT22;46889;37.310;13.582;2023-02-28T01:49:47;12.60;99.90
61004;DHT22;46889;37.310;13.582;2023-02-28T01:52:30;12.50;99.90
61004;DHT22;46889;37.310;13.582;2023-02-28T01:54:59;12.50;99.90
61004;DHT22;46889;37.310;13.582;2023-02-28T01:57:34;12.40;99.90
61004;DHT22;46889;37.310;13.582;2023-02-28T02:00:07;12.40;99.90
61004;DHT22;46889;37.310;13.582;2023-02-28T02:02:36;12.40;99.90
61004;DHT22;46889;37.310;13.582;2023-02-28T02:05:10;12.30;99.90
61004;DHT22;46889;37.310;13.582;2023-02-28T02:07:39;12.20;99.90
61004;DHT22;46889;37.310;13.582;2023-02-28T02:13:01;12.30;99.90
61004;DHT22;46889;37.310;13.582;2023-02-28T02:18:37;12.50;99.90
61004;DHT22;46889;37.310;13.582;2023-02-28T02:33:33;12.40;99.90
61004;DHT22;46889;37.310;13.582;2023-02-28T02:36:21;12.40;99.90
61004;DHT22;46889;37.310;13.582;2023-02-28T02:39:21;12.50;99.90
61004;DHT22;46889;37.310;13.582;2023-02-28T02:41:54;12.50;99.90
61004;DHT22;46889;37.310;13.582;2023-02-28T02:47:22;12.50;99.90
61004;DHT22;46889;37.310;13.582;2023-02-28T02:49:56;12.50;99.90
61004;DHT22;46889;37.310;13.582;2023-02-28T02:52:30;12.60;99.90
61004;DHT22;46889;37.310;13.582;2023-02-28T02:54:59;12.60;99.90
61004;DHT22;46889;37.310;13.582;2023-02-28T02:57:34;12.50;99.90
61004;DHT22;46889;37.310;13.582;2023-02-28T03:00:04;12.50;99.90
61004;DHT22;46889;37.310;13.582;2023-02-28T03:02:35;12.50;99.90
61004;DHT22;46889;37.310;13.582;2023-02-28T03:05:08;12.60;99.90
61004;DHT22;46889;37.310;13.582;2023-02-28T03:07:38;12.60;99.90
61004;DHT22;46889;37.310;13.582;2023-02-28T03:15:53;12.80;99.90
61004;DHT22;46889;37.310;13.582;2023-02-28T03:26:47;13.00;99.90
61004;DHT22;46889;37.310;13.582;2023-02-28T03:29:28;13.10;99.90
61004;DHT22;46889;37.310;13.582;2023-02-28T03:32:17;13.20;99.90
61004;DHT22;46889;37.310;13.582;2023-02-28T03:35:19;13.20;99.90
61004;DHT22;46889;37.310;13.582;2023-02-28T03:37:58;13.30;99.90
61004;DHT22;46889;37.310;13.582;2023-02-28T03:40:31;13.30;99.90
61004;DHT22;46889;37.310;13.582;2023-02-28T03:43:03;13.30;99.90
61004;DHT22;46889;37.310;13.582;2023-02-28T03:45:36;13.30;99.90
61004;DHT22;46889;37.310;13.582;2023-02-28T03:48:13;13.30;99.90
61004;DHT22;46889;37.310;13.582;2023-02-28T03:50:43;13.30;99.90
61004;DHT22;46889;37.310;13.582;2023-02-28T03:55:43;13.40;99.90
61004;DHT22;46889;37.310;13.582;2023-02-28T04:01:49;13.30;99.90
61004;DHT22;46889;37.310;13.582;2023-02-28T04:04:17;13.30;99.90
61004;DHT22;46889;37.310;13.582;2023-02-28T04:06:49;13.30;99.90
61004;DHT22;46889;37.310;13.582;2023-02-28T04:09:15;13.30;99.90
61004;DHT22;46889;37.310;13.582;2023-02-28T04:11:51;13.30;99.90
61004;DHT22;46889;37.310;13.582;2023-02-28T04:14:19;13.20;99.90
61004;DHT22;46889;37.310;13.582;2023-02-28T04:16:48;13.30;99.90
61004;DHT22;46889;37.310;13.582;2023-02-28T04:19:16;13.40;99.90
61004;DHT22;46889;37.310;13.582;2023-02-28T04:21:50;13.30;99.90
61004;DHT22;46889;37.310;13.582;2023-02-28T04:24:25;13.40;99.90
61004;DHT22;46889;37.310;13.582;2023-02-28T04:26:54;13.50;99.90
61004;DHT22;46889;37.310;13.582;2023-02-28T04:29:25;13.40;99.90
61004;DHT22;46889;37.310;13.582;2023-02-28T04:31:52;13.50;99.90
61004;DHT22;46889;37.310;13.582;2023-02-28T04:34:25;13.50;99.90
61004;DHT22;46889;37.310;13.582;2023-02-28T04:36:54;13.60;99.90
61004;DHT22;46889;37.310;13.582;2023-02-28T04:39:21;13.60;99.90
61004;DHT22;46889;37.310;13.582;2023-02-28T04:41:52;13.60;99.90
61004;DHT22;46889;37.310;13.582;2023-02-28T04:44:22;13.60;99.90
61004;DHT22;46889;37.310;13.582;2023-02-28T04:46:49;13.60;99.90
61004;DHT22;46889;37.310;13.582;2023-02-28T04:49:15;13.60;99.90
61004;DHT22;46889;37.310;13.582;2023-02-28T04:51:42;13.60;99.90
61004;DHT22;46889;37.310;13.582;2023-02-28T04:54:08;13.60;99.90
61004;DHT22;46889;37.310;13.582;2023-02-28T04:56:35;13.60;99.90
61004;DHT22;46889;37.310;13.582;2023-02-28T04:59:01;13.50;99.90
61004;DHT22;46889;37.310;13.582;2023-02-28T05:01:30;13.50;99.90
61004;DHT22;46889;37.310;13.582;2023-02-28T05:04:00;13.50;99.90
61004;DHT22;46889;37.310;13.582;2023-02-28T05:06:30;13.50;99.90
61004;DHT22;46889;37.310;13.582;2023-02-28T05:08:56;13.50;99.90
61004;DHT22;46889;37.310;13.582;2023-02-28T05:11:28;13.50;99.90
61004;DHT22;46889;37.310;13.582;2023-02-28T05:13:59;13.60;99.90
61004;DHT22;46889;37.310;13.582;2023-02-28T05:16:25;13.60;99.90
61004;DHT22;46889;37.310;13.582;2023-02-28T05:18:51;13.60;99.90
61004;DHT22;46889;37.310;13.582;2023-02-28T05:21:40;13.60;99.90
61004;DHT22;46889;37.310;13.582;2023-02-28T05:24:12;13.60;99.90
61004;DHT22;46889;37.310;13.582;2023-02-28T05:26:41;13.60;99.90
61004;DHT22;46889;37.310;13.582;2023-02-28T05:29:08;13.60;99.90
61004;DHT22;46889;37.310;13.582;2023-02-28T05:31:46;13.60;99.90
61004;DHT22;46889;37.310;13.582;2023-02-28T05:34:13;13.70;99.90
61004;DHT22;46889;37.310;13.582;2023-02-28T05:36:47;13.60;99.90
61004;DHT22;46889;37.310;13.582;2023-02-28T05:39:13;13.60;99.90
61004;DHT22;46889;37.310;13.582;2023-02-28T05:41:41;13.60;99.90
61004;DHT22;46889;37.310;13.582;2023-02-28T05:44:07;13.60;99.90
61004;DHT22;46889;37.310;13.582;2023-02-28T05:46:34;13.60;99.90
61004;DHT22;46889;37.310;13.582;2023-02-28T05:49:00;13.70;99.90
61004;DHT22;46889;37.310;13.582;2023-02-28T05:51:26;13.70;99.90
61004;DHT22;46889;37.310;13.582;2023-02-28T05:54:07;13.70;99.90
61004;DHT22;46889;37.310;13.582;2023-02-28T05:56:33;13.70;99.90
61004;DHT22;46889;37.310;13.582;2023-02-28T05:59:04;13.80;99.90
61004;DHT22;46889;37.310;13.582;2023-02-28T06:01:34;13.80;99.90
61004;DHT22;46889;37.310;13.582;2023-02-28T06:04:05;13.80;99.90
61004;DHT22;46889;37.310;13.582;2023-02-28T06:06:32;13.80;99.90
61004;DHT22;46889;37.310;13.582;2023-02-28T06:09:00;13.80;99.90
61004;DHT22;46889;37.310;13.582;2023-02-28T06:11:27;13.80;99.90
61004;DHT22;46889;37.310;13.582;2023-02-28T06:13:56;13.80;99.90
61004;DHT22;46889;37.310;13.582;2023-02-28T06:16:29;13.90;99.90
61004;DHT22;46889;37.310;13.582;2023-02-28T06:18:58;13.90;99.90
61004;DHT22;46889;37.310;13.582;2023-02-28T06:21:25;14.00;99.90
61004;DHT22;46889;37.310;13.582;2023-02-28T06:23:53;14.00;99.90
61004;DHT22;46889;37.310;13.582;2023-02-28T06:26:22;14.10;99.90
61004;DHT22;46889;37.310;13.582;2023-02-28T06:28:52;14.10;99.90
61004;DHT22;46889;37.310;13.582;2023-02-28T06:31:18;14.10;99.90
61004;DHT22;46889;37.310;13.582;2023-02-28T06:33:46;14.10;99.90
61004;DHT22;46889;37.310;13.582;2023-02-28T06:36:14;14.20;99.90
61004;DHT22;46889;37.310;13.582;2023-02-28T06:38:41;14.10;99.90
61004;DHT22;46889;37.310;13.582;2023-02-28T06:41:07;14.20;99.90
61004;DHT22;46889;37.310;13.582;2023-02-28T06:43:41;14.20;99.90
61004;DHT22;46889;37.310;13.582;2023-02-28T06:46:10;14.30;99.90
61004;DHT22;46889;37.310;13.582;2023-02-28T06:48:38;14.40;99.90
61004;DHT22;46889;37.310;13.582;2023-02-28T06:51:12;14.50;99.90
61004;DHT22;46889;37.310;13.582;2023-02-28T06:53:41;14.50;99.90
61004;DHT22;46889;37.310;13.582;2023-02-28T06:56:09;14.50;99.90
61004;DHT22;46889;37.310;13.582;2023-02-28T06:58:38;14.40;99.90
61004;DHT22;46889;37.310;13.582;2023-02-28T07:01:05;14.50;99.90
61004;DHT22;46889;37.310;13.582;2023-02-28T07:03:34;14.60;99.90
61004;DHT22;46889;37.310;13.582;2023-02-28T07:06:00;14.70;99.90
61004;DHT22;46889;37.310;13.582;2023-02-28T07:08:27;15.20;99.90
61004;DHT22;46889;37.310;13.582;2023-02-28T07:10:54;15.90;99.90
61004;DHT22;46889;37.310;13.582;2023-02-28T07:13:20;16.10;99.90
61004;DHT22;46889;37.310;13.582;2023-02-28T07:15:59;16.10;99.90
61004;DHT22;46889;37.310;13.582;2023-02-28T07:18:28;16.10;99.90
61004;DHT22;46889;37.310;13.582;2023-02-28T07:20:55;15.80;99.90
61004;DHT22;46889;37.310;13.582;2023-02-28T07:23:22;15.70;99.90
61004;DHT22;46889;37.310;13.582;2023-02-28T07:25:49;15.40;99.90
61004;DHT22;46889;37.310;13.582;2023-02-28T07:28:15;15.30;99.90
61004;DHT22;46889;37.310;13.582;2023-02-28T07:30:47;15.10;99.90
61004;DHT22;46889;37.310;13.582;2023-02-28T07:33:13;14.90;99.90
61004;DHT22;46889;37.310;13.582;2023-02-28T07:35:40;14.80;99.90
61004;DHT22;46889;37.310;13.582;2023-02-28T07:38:07;14.60;99.90
61004;DHT22;46889;37.310;13.582;2023-02-28T07:40:34;14.60;99.90
61004;DHT22;46889;37.310;13.582;2023-02-28T07:43:02;14.50;99.90
61004;DHT22;46889;37.310;13.582;2023-02-28T07:45:30;14.50;99.90
61004;DHT22;46889;37.310;13.582;2023-02-28T07:47:58;14.40;99.90
61004;DHT22;46889;37.310;13.582;2023-02-28T07:50:24;14.40;99.90
61004;DHT22;46889;37.310;13.582;2023-02-28T07:52:50;14.30;99.90
61004;DHT22;46889;37.310;13.582;2023-02-28T07:55:17;14.50;99.90
61004;DHT22;46889;37.310;13.582;2023-02-28T07:57:44;14.60;99.90
61004;DHT22;46889;37.310;13.582;2023-02-28T08:00:14;14.60;99.90
61004;DHT22;46889;37.310;13.582;2023-02-28T08:02:43;14.60;99.90
61004;DHT22;46889;37.310;13.582;2023-02-28T08:05:11;14.60;99.90
61004;DHT22;46889;37.310;13.582;2023-02-28T08:07:39;14.70;99.90
61004;DHT22;46889;37.310;13.582;2023-02-28T08:10:05;14.90;99.90
61004;DHT22;46889;37.310;13.582;2023-02-28T08:12:32;15.30;99.90
61004;DHT22;46889;37.310;13.582;2023-02-28T08:14:59;15.80;99.90
61004;DHT22;46889;37.310;13.582;2023-02-28T08:17:25;15.90;99.90
61004;DHT22;46889;37.310;13.582;2023-02-28T08:19:52;16.10;99.90
61004;DHT22;46889;37.310;13.582;2023-02-28T08:22:18;16.30;99.90
61004;DHT22;46889;37.310;13.582;2023-02-28T08:24:44;16.50;99.90
61004;DHT22;46889;37.310;13.582;2023-02-28T08:27:11;16.40;99.90
61004;DHT22;46889;37.310;13.582;2023-02-28T08:29:43;16.50;99.90
61004;DHT22;46889;37.310;13.582;2023-02-28T08:32:10;16.40;99.90
61004;DHT22;46889;37.310;13.582;2023-02-28T08:34:38;16.60;99.90
61004;DHT22;46889;37.310;13.582;2023-02-28T08:37:04;16.10;99.90
61004;DHT22;46889;37.310;13.582;2023-02-28T08:39:33;16.20;99.90
61004;DHT22;46889;37.310;13.582;2023-02-28T08:41:59;16.40;99.90
61004;DHT22;46889;37.310;13.582;2023-02-28T08:44:26;16.10;99.90
61004;DHT22;46889;37.310;13.582;2023-02-28T08:46:52;15.90;99.90
61004;DHT22;46889;37.310;13.582;2023-02-28T08:49:19;15.90;99.90
61004;DHT22;46889;37.310;13.582;2023-02-28T08:51:46;15.70;99.90
61004;DHT22;46889;37.310;13.582;2023-02-28T08:54:12;15.60;99.90
61004;DHT22;46889;37.310;13.582;2023-02-28T08:56:38;15.80;99.90
61004;DHT22;46889;37.310;13.582;2023-02-28T08:59:05;15.80;99.90
61004;DHT22;46889;37.310;13.582;2023-02-28T09:01:31;15.80;99.90
61004;DHT22;46889;37.310;13.582;2023-02-28T09:03:58;15.70;99.90
61004;DHT22;46889;37.310;13.582;2023-02-28T09:06:29;15.90;99.90
61004;DHT22;46889;37.310;13.582;2023-02-28T09:08:59;15.80;99.90
61004;DHT22;46889;37.310;13.582;2023-02-28T09:11:28;15.60;99.90
61004;DHT22;46889;37.310;13.582;2023-02-28T09:13:55;15.50;99.90
61004;DHT22;46889;37.310;13.582;2023-02-28T09:16:21;15.60;99.90
61004;DHT22;46889;37.310;13.582;2023-02-28T09:18:48;15.40;99.90
61004;DHT22;46889;37.310;13.582;2023-02-28T09:21:16;15.30;99.90
61004;DHT22;46889;37.310;13.582;2023-02-28T09:23:46;15.30;99.90
61004;DHT22;46889;37.310;13.582;2023-02-28T09:26:16;15.10;99.90
61004;DHT22;46889;37.310;13.582;2023-02-28T09:28:44;15.10;99.90
61004;DHT22;46889;37.310;13.582;2023-02-28T09:31:21;15.00;99.90
61004;DHT22;46889;37.310;13.582;2023-02-28T09:33:50;14.80;99.90
61004;DHT22;46889;37.310;13.582;2023-02-28T09:36:17;14.90;99.90
61004;DHT22;46889;37.310;13.582;2023-02-28T09:38:47;14.90;99.90
61004;DHT22;46889;37.310;13.582;2023-02-28T09:41:19;14.80;99.90
61004;DHT22;46889;37.310;13.582;2023-02-28T09:43:57;14.90;99.90
61004;DHT22;46889;37.310;13.582;2023-02-28T09:46:31;14.90;99.90
61004;DHT22;46889;37.310;13.582;2023-02-28T09:49:02;15.20;99.90
61004;DHT22;46889;37.310;13.582;2023-02-28T09:54:24;15.40;99.90
61004;DHT22;46889;37.310;13.582;2023-02-28T09:57:00;15.70;99.90
61004;DHT22;46889;37.310;13.582;2023-02-28T09:59:41;15.80;99.90
61004;DHT22;46889;37.310;13.582;2023-02-28T10:05:12;16.60;99.90
61004;DHT22;46889;37.310;13.582;2023-02-28T10:07:50;16.60;99.90
61004;DHT22;46889;37.310;13.582;2023-02-28T10:10:35;16.30;99.90
61004;DHT22;46889;37.310;13.582;2023-02-28T10:13:05;16.40;99.90
61004;DHT22;46889;37.310;13.582;2023-02-28T10:15:34;16.30;99.90
61004;DHT22;46889;37.310;13.582;2023-02-28T10:18:11;16.40;99.90
61004;DHT22;46889;37.310;13.582;2023-02-28T10:20:40;16.30;99.90
61004;DHT22;46889;37.310;13.582;2023-02-28T10:23:42;16.30;99.90
61004;DHT22;46889;37.310;13.582;2023-02-28T10:27:06;16.20;99.90
61004;DHT22;46889;37.310;13.582;2023-02-28T10:29:43;16.50;99.90
61004;DHT22;46889;37.310;13.582;2023-02-28T10:32:13;16.70;99.90
61004;DHT22;46889;37.310;13.582;2023-02-28T10:34:41;16.80;99.90
61004;DHT22;46889;37.310;13.582;2023-02-28T10:37:09;17.10;99.90
61004;DHT22;46889;37.310;13.582;2023-02-28T10:39:53;17.40;99.90
61004;DHT22;46889;37.310;13.582;2023-02-28T10:42:24;17.30;99.90
61004;DHT22;46889;37.310;13.582;2023-02-28T10:45:14;17.40;99.90
61004;DHT22;46889;37.310;13.582;2023-02-28T10:50:38;17.10;99.90
61004;DHT22;46889;37.310;13.582;2023-02-28T10:56:19;17.20;99.90
61004;DHT22;46889;37.310;13.582;2023-02-28T10:58:51;17.40;99.90
61004;DHT22;46889;37.310;13.582;2023-02-28T11:07:22;17.20;99.90
61004;DHT22;46889;37.310;13.582;2023-02-28T11:09:52;17.20;99.90
61004;DHT22;46889;37.310;13.582;2023-02-28T11:12:36;17.10;99.90
61004;DHT22;46889;37.310;13.582;2023-02-28T11:15:29;16.80;99.90
61004;DHT22;46889;37.310;13.582;2023-02-28T11:21:03;16.40;99.90
61004;DHT22;46889;37.310;13.582;2023-02-28T11:23:33;16.20;99.90
61004;DHT22;46889;37.310;13.582;2023-02-28T11:26:04;16.20;99.90
61004;DHT22;46889;37.310;13.582;2023-02-28T11:28:37;16.30;99.90
61004;DHT22;46889;37.310;13.582;2023-02-28T11:31:15;16.60;99.90
61004;DHT22;46889;37.310;13.582;2023-02-28T11:33:47;16.90;99.90
61004;DHT22;46889;37.310;13.582;2023-02-28T11:36:31;17.00;99.90
61004;DHT22;46889;37.310;13.582;2023-02-28T11:39:08;17.20;99.90
61004;DHT22;46889;37.310;13.582;2023-02-28T11:53:17;17.80;99.90
61004;DHT22;46889;37.310;13.582;2023-02-28T11:59:24;17.50;99.90
61004;DHT22;46889;37.310;13.582;2023-02-28T12:10:30;17.30;99.90
61004;DHT22;46889;37.310;13.582;2023-02-28T12:16:06;17.60;99.90
61004;DHT22;46889;37.310;13.582;2023-02-28T12:19:01;17.60;99.90
61004;DHT22;46889;37.310;13.582;2023-02-28T12:21:51;17.30;99.90
61004;DHT22;46889;37.310;13.582;2023-02-28T12:27:14;16.50;99.90
61004;DHT22;46889;37.310;13.582;2023-02-28T12:29:54;16.40;99.90
61004;DHT22;46889;37.310;13.582;2023-02-28T12:35:24;16.10;99.90
61004;DHT22;46889;37.310;13.582;2023-02-28T12:38:05;16.20;99.90
61004;DHT22;46889;37.310;13.582;2023-02-28T12:40:53;16.20;99.90
61004;DHT22;46889;37.310;13.582;2023-02-28T12:43:21;15.90;99.90
61004;DHT22;46889;37.310;13.582;2023-02-28T12:46:09;15.70;99.90
61004;DHT22;46889;37.310;13.582;2023-02-28T12:48:43;15.60;99.90
61004;DHT22;46889;37.310;13.582;2023-02-28T12:51:16;15.60;99.90
61004;DHT22;46889;37.310;13.582;2023-02-28T12:53:53;15.50;99.90
61004;DHT22;46889;37.310;13.582;2023-02-28T12:59:30;15.60;99.90
61004;DHT22;46889;37.310;13.582;2023-02-28T13:05:25;15.40;99.90
61004;DHT22;46889;37.310;13.582;2023-02-28T13:10:40;15.50;99.90
61004;DHT22;46889;37.310;13.582;2023-02-28T13:13:15;15.40;99.90
61004;DHT22;46889;37.310;13.582;2023-02-28T13:15:58;15.20;99.90
61004;DHT22;46889;37.310;13.582;2023-02-28T13:18:45;15.10;99.90
61004;DHT22;46889;37.310;13.582;2023-02-28T13:21:42;15.10;99.90
61004;DHT22;46889;37.310;13.582;2023-02-28T13:24:09;15.00;99.90
61004;DHT22;46889;37.310;13.582;2023-02-28T13:32:19;15.00;99.90
61004;DHT22;46889;37.310;13.582;2023-02-28T13:39:58;14.90;99.90
61004;DHT22;46889;37.310;13.582;2023-02-28T13:42:35;14.90;99.90
61004;DHT22;46889;37.310;13.582;2023-02-28T13:47:56;14.70;99.90
61004;DHT22;46889;37.310;13.582;2023-02-28T13:50:33;14.70;99.90
61004;DHT22;46889;37.310;13.582;2023-02-28T14:01:31;14.90;99.90
61004;DHT22;46889;37.310;13.582;2023-02-28T14:06:37;15.00;99.90
61004;DHT22;46889;37.310;13.582;2023-02-28T14:11:54;15.20;99.90
61004;DHT22;46889;37.310;13.582;2023-02-28T14:17:14;15.10;99.90
61004;DHT22;46889;37.310;13.582;2023-02-28T14:19:47;15.10;99.90
61004;DHT22;46889;37.310;13.582;2023-02-28T14:22:39;15.10;99.90
61004;DHT22;46889;37.310;13.582;2023-02-28T14:31:09;14.60;99.90
61004;DHT22;46889;37.310;13.582;2023-02-28T14:36:42;14.70;99.90
61004;DHT22;46889;37.310;13.582;2023-02-28T14:39:17;14.80;99.90
61004;DHT22;46889;37.310;13.582;2023-02-28T14:41:45;14.70;99.90
61004;DHT22;46889;37.310;13.582;2023-02-28T14:44:24;14.70;99.90
61004;DHT22;46889;37.310;13.582;2023-02-28T14:47:02;14.60;99.90
61004;DHT22;46889;37.310;13.582;2023-02-28T14:49:42;14.40;99.90
61004;DHT22;46889;37.310;13.582;2023-02-28T14:54:54;14.40;99.90
61004;DHT22;46889;37.310;13.582;2023-02-28T14:57:32;14.50;99.90
61004;DHT22;46889;37.310;13.582;2023-02-28T15:00:03;14.60;99.90
61004;DHT22;46889;37.310;13.582;2023-02-28T15:02:33;14.60;99.90
61004;DHT22;46889;37.310;13.582;2023-02-28T15:05:18;14.50;99.90
61004;DHT22;46889;37.310;13.582;2023-02-28T15:07:47;14.50;99.90
61004;DHT22;46889;37.310;13.582;2023-02-28T15:10:20;14.30;99.90
61004;DHT22;46889;37.310;13.582;2023-02-28T15:12:56;14.40;99.90
61004;DHT22;46889;37.310;13.582;2023-02-28T15:18:05;14.50;99.90
61004;DHT22;46889;37.310;13.582;2023-02-28T15:20:43;14.50;99.90
61004;DHT22;46889;37.310;13.582;2023-02-28T15:23:11;14.40;99.90
61004;DHT22;46889;37.310;13.582;2023-02-28T15:25:37;14.30;99.90
61004;DHT22;46889;37.310;13.582;2023-02-28T15:28:05;14.30;99.90
61004;DHT22;46889;37.310;13.582;2023-02-28T15:30:32;14.30;99.90
61004;DHT22;46889;37.310;13.582;2023-02-28T15:33:29;14.20;99.90
61004;DHT22;46889;37.310;13.582;2023-02-28T15:36:14;14.20;99.90
61004;DHT22;46889;37.310;13.582;2023-02-28T15:38:41;14.10;99.90
61004;DHT22;46889;37.310;13.582;2023-02-28T15:41:24;14.10;99.90
61004;DHT22;46889;37.310;13.582;2023-02-28T15:46:44;14.20;99.90
61004;DHT22;46889;37.310;13.582;2023-02-28T15:49:18;14.20;99.90
61004;DHT22;46889;37.310;13.582;2023-02-28T15:51:46;14.30;99.90
61004;DHT22;46889;37.310;13.582;2023-02-28T15:54:19;14.40;99.90
61004;DHT22;46889;37.310;13.582;2023-02-28T15:56:49;14.40;99.90
61004;DHT22;46889;37.310;13.582;2023-02-28T15:59:19;14.40;99.90
61004;DHT22;46889;37.310;13.582;2023-02-28T16:01:46;14.50;99.90
61004;DHT22;46889;37.310;13.582;2023-02-28T16:04:17;14.50;99.90
61004;DHT22;46889;37.310;13.582;2023-02-28T16:06:45;14.60;99.90
61004;DHT22;46889;37.310;13.582;2023-02-28T16:09:15;14.50;99.90
61004;DHT22;46889;37.310;13.582;2023-02-28T16:11:45;14.40;99.90
61004;DHT22;46889;37.310;13.582;2023-02-28T16:14:15;14.50;99.90
61004;DHT22;46889;37.310;13.582;2023-02-28T16:16:44;14.40;99.90
61004;DHT22;46889;37.310;13.582;2023-02-28T16:19:11;14.30;99.90
61004;DHT22;46889;37.310;13.582;2023-02-28T16:21:38;14.40;99.90
61004;DHT22;46889;37.310;13.582;2023-02-28T16:24:06;14.40;99.90
61004;DHT22;46889;37.310;13.582;2023-02-28T16:26:34;14.40;99.90
61004;DHT22;46889;37.310;13.582;2023-02-28T16:29:03;14.40;99.90
61004;DHT22;46889;37.310;13.582;2023-02-28T16:31:29;14.30;99.90
61004;DHT22;46889;37.310;13.582;2023-02-28T16:33:57;14.30;99.90
61004;DHT22;46889;37.310;13.582;2023-02-28T16:36:24;14.20;99.90
61004;DHT22;46889;37.310;13.582;2023-02-28T16:38:51;14.20;99.90
61004;DHT22;46889;37.310;13.582;2023-02-28T16:41:23;14.20;99.90
61004;DHT22;46889;37.310;13.582;2023-02-28T16:43:53;14.10;99.90
61004;DHT22;46889;37.310;13.582;2023-02-28T16:46:20;14.10;99.90
61004;DHT22;46889;37.310;13.582;2023-02-28T16:48:48;14.10;99.90
61004;DHT22;46889;37.310;13.582;2023-02-28T16:51:17;14.10;99.90
61004;DHT22;46889;37.310;13.582;2023-02-28T16:53:44;14.20;99.90
61004;DHT22;46889;37.310;13.582;2023-02-28T16:56:28;14.10;99.90
61004;DHT22;46889;37.310;13.582;2023-02-28T16:58:58;14.10;99.90
61004;DHT22;46889;37.310;13.582;2023-02-28T17:01:30;14.10;99.90
61004;DHT22;46889;37.310;13.582;2023-02-28T17:03:57;14.00;99.90
61004;DHT22;46889;37.310;13.582;2023-02-28T17:06:26;14.00;99.90
61004;DHT22;46889;37.310;13.582;2023-02-28T17:08:56;14.00;99.90
61004;DHT22;46889;37.310;13.582;2023-02-28T17:11:27;14.00;99.90
61004;DHT22;46889;37.310;13.582;2023-02-28T17:13:54;14.00;99.90
61004;DHT22;46889;37.310;13.582;2023-02-28T17:16:27;14.00;99.90
61004;DHT22;46889;37.310;13.582;2023-02-28T17:18:57;14.00;99.90
61004;DHT22;46889;37.310;13.582;2023-02-28T17:21:24;14.00;99.90
61004;DHT22;46889;37.310;13.582;2023-02-28T17:23:50;14.00;99.90
61004;DHT22;46889;37.310;13.582;2023-02-28T17:26:17;14.00;99.90
61004;DHT22;46889;37.310;13.582;2023-02-28T17:28:51;14.00;99.90
61004;DHT22;46889;37.310;13.582;2023-02-28T17:31:18;14.00;99.90
61004;DHT22;46889;37.310;13.582;2023-02-28T17:33:44;14.00;99.90
61004;DHT22;46889;37.310;13.582;2023-02-28T17:36:16;13.90;99.90
61004;DHT22;46889;37.310;13.582;2023-02-28T17:38:44;14.00;99.90
61004;DHT22;46889;37.310;13.582;2023-02-28T17:41:10;14.00;99.90
61004;DHT22;46889;37.310;13.582;2023-02-28T17:43:36;13.90;99.90
61004;DHT22;46889;37.310;13.582;2023-02-28T17:46:02;13.90;99.90
61004;DHT22;46889;37.310;13.582;2023-02-28T17:48:33;13.90;99.90
61004;DHT22;46889;37.310;13.582;2023-02-28T17:51:02;13.80;99.90
61004;DHT22;46889;37.310;13.582;2023-02-28T17:53:28;13.80;99.90
61004;DHT22;46889;37.310;13.582;2023-02-28T17:55:55;13.90;99.90
61004;DHT22;46889;37.310;13.582;2023-02-28T17:58:21;13.90;99.90
61004;DHT22;46889;37.310;13.582;2023-02-28T18:00:48;13.90;99.90
61004;DHT22;46889;37.310;13.582;2023-02-28T18:03:19;13.80;99.90
61004;DHT22;46889;37.310;13.582;2023-02-28T18:05:46;13.60;99.90
61004;DHT22;46889;37.310;13.582;2023-02-28T18:08:14;13.60;99.90
61004;DHT22;46889;37.310;13.582;2023-02-28T18:10:41;13.50;99.90
61004;DHT22;46889;37.310;13.582;2023-02-28T18:13:13;13.20;99.90